Time;durP1;ratioP1;P1;durP2;ratioP2;P2;SDS_P1;SDS_P2;PMS_P1;PMS_P2;Temp;Humidity;BMP_temperature;BMP_pressure;BME280_temperature;BME280_humidity;BME280_pressure;Samples;Min_cycle;Max_cycle;Signal;HPM_P1;HPM_P2
2021/11/22 00:02:15;;;;;;;15.38;4.93;;;1.60;99.90;;;;;;4977418;28;20035;-65
2021/11/22 00:04:41;;;;;;;18.40;5.00;;;1.60;99.90;;;;;;4973291;28;20031;-65
2021/11/22 00:07:07;;;;;;;12.27;5.03;;;1.60;99.90;;;;;;4987394;28;20022;-65
2021/11/22 00:09:33;;;;;;;18.02;5.93;;;1.50;99.90;;;;;;4975054;28;20027;-65
2021/11/22 00:12:00;;;;;;;14.25;5.40;;;1.60;99.90;;;;;;4969099;28;20027;-65
2021/11/22 00:14:26;;;;;;;10.95;4.95;;;1.50;99.90;;;;;;4972666;28;20018;-65
2021/11/22 00:16:51;;;;;;;16.05;5.45;;;1.40;99.90;;;;;;4965486;28;20042;-65
2021/11/22 00:19:17;;;;;;;15.57;5.15;;;1.40;99.90;;;;;;4972879;28;20485;-65
2021/11/22 00:21:42;;;;;;;11.02;4.78;;;1.40;99.90;;;;;;4970979;28;20050;-65
2021/11/22 00:24:08;;;;;;;14.18;5.50;;;1.30;99.90;;;;;;4971241;28;20027;-65
2021/11/22 00:26:34;;;;;;;10.80;4.53;;;1.30;99.90;;;;;;4975538;28;20066;-65
2021/11/22 00:28:59;;;;;;;11.48;4.85;;;1.20;99.90;;;;;;4978401;28;20057;-65
2021/11/22 00:31:25;;;;;;;15.98;5.68;;;1.20;99.90;;;;;;4972298;28;20058;-65
2021/11/22 00:33:52;;;;;;;14.23;4.95;;;1.20;99.90;;;;;;4982500;28;20038;-65
2021/11/22 00:36:18;;;;;;;11.57;5.03;;;1.20;99.90;;;;;;4969244;28;20061;-65
2021/11/22 00:38:43;;;;;;;19.20;4.90;;;1.20;99.90;;;;;;4974173;28;20502;-65
2021/11/22 00:41:09;;;;;;;13.55;4.35;;;1.10;99.90;;;;;;4980790;28;20041;-65
2021/11/22 00:43:34;;;;;;;13.15;5.07;;;1.00;99.90;;;;;;4984425;28;20116;-65
2021/11/22 00:46:00;;;;;;;14.10;5.25;;;1.00;99.90;;;;;;4973625;28;20300;-65
2021/11/22 00:48:26;;;;;;;12.98;4.63;;;0.90;99.90;;;;;;4975504;28;20039;-67
2021/11/22 00:50:54;;;;;;;16.90;5.10;;;0.90;99.90;;;;;;4977237;28;20500;-65
2021/11/22 00:53:20;;;;;;;11.90;4.38;;;0.90;99.90;;;;;;4972528;28;20114;-68
2021/11/22 00:55:46;;;;;;;8.68;4.13;;;0.80;99.90;;;;;;4964030;28;20063;-65
2021/11/22 00:58:12;;;;;;;13.95;5.20;;;0.90;99.90;;;;;;4977848;28;20460;-65
2021/11/22 01:00:38;;;;;;;14.05;5.55;;;0.80;99.90;;;;;;4968023;28;20041;-65
2021/11/22 01:03:05;;;;;;;11.95;5.18;;;0.70;99.90;;;;;;4976020;28;20413;-65
2021/11/22 01:05:31;;;;;;;14.35;5.00;;;0.70;99.90;;;;;;4967026;28;20147;-66
2021/11/22 01:07:57;;;;;;;15.02;4.70;;;0.70;99.90;;;;;;4973724;28;20026;-65
2021/11/22 01:10:22;;;;;;;15.85;5.82;;;0.60;99.90;;;;;;4971755;28;20033;-65
2021/11/22 01:12:49;;;;;;;12.57;4.95;;;0.60;99.90;;;;;;4981382;28;20026;-65
2021/11/22 01:15:18;;;;;;;15.13;5.78;;;0.60;99.90;;;;;;4971148;28;20104;-65
2021/11/22 01:17:45;;;;;;;15.88;5.68;;;0.60;99.90;;;;;;4968801;28;20034;-65
2021/11/22 01:20:15;;;;;;;14.18;4.95;;;0.60;99.90;;;;;;4972149;28;20038;-65
2021/11/22 01:22:41;;;;;;;11.52;4.57;;;0.60;99.90;;;;;;4964014;28;20042;-65
2021/11/22 01:25:08;;;;;;;10.18;4.80;;;0.50;99.90;;;;;;4969952;28;20041;-65
2021/11/22 01:27:35;;;;;;;15.27;5.00;;;0.50;99.90;;;;;;4977939;28;20243;-65
2021/11/22 01:30:03;;;;;;;11.88;4.60;;;0.50;99.90;;;;;;4970431;28;20027;-65
2021/11/22 01:32:29;;;;;;;15.55;4.60;;;0.60;99.90;;;;;;4964108;28;20019;-65
2021/11/22 01:34:54;;;;;;;14.15;4.40;;;0.60;99.90;;;;;;4968842;28;20181;-65
2021/11/22 01:37:21;;;;;;;18.77;4.80;;;0.50;99.90;;;;;;4969922;28;20033;-65
2021/11/22 01:39:46;;;;;;;14.40;4.50;;;0.60;99.90;;;;;;4973982;28;20077;-66
2021/11/22 01:42:12;;;;;;;12.25;4.25;;;0.50;99.90;;;;;;4970617;28;20026;-65
2021/11/22 01:44:37;;;;;;;8.80;4.03;;;0.50;99.90;;;;;;4976029;28;20068;-65
2021/11/22 01:47:03;;;;;;;14.15;4.20;;;0.50;99.90;;;;;;4964336;28;20072;-65
2021/11/22 01:49:28;;;;;;;11.13;4.25;;;0.50;99.90;;;;;;4964355;28;20041;-65
2021/11/22 01:51:53;;;;;;;10.57;4.55;;;0.50;99.90;;;;;;4973211;28;20143;-65
2021/11/22 01:54:19;;;;;;;9.93;4.20;;;0.50;99.90;;;;;;4967057;28;20034;-65
2021/11/22 01:56:46;;;;;;;14.65;4.93;;;0.40;99.90;;;;;;4969305;28;20478;-65
2021/11/22 01:59:16;;;;;;;14.07;4.57;;;0.40;99.90;;;;;;4970734;28;20038;-65
2021/11/22 02:01:43;;;;;;;16.95;4.80;;;0.40;99.90;;;;;;4970120;28;20134;-65
2021/11/22 02:04:09;;;;;;;15.82;4.18;;;0.40;99.90;;;;;;4966519;28;20049;-65
2021/11/22 02:06:35;;;;;;;14.07;4.25;;;0.40;99.90;;;;;;4975239;28;20031;-65
2021/11/22 02:09:01;;;;;;;15.55;4.75;;;0.40;99.90;;;;;;4972240;28;20080;-65
2021/11/22 02:11:27;;;;;;;13.65;4.10;;;0.40;99.90;;;;;;4971927;28;20097;-65
2021/11/22 02:13:53;;;;;;;16.48;4.90;;;0.30;99.90;;;;;;4975570;28;20077;-65
2021/11/22 02:16:18;;;;;;;9.70;4.07;;;0.40;99.90;;;;;;4976710;28;20018;-65
2021/11/22 02:18:44;;;;;;;14.57;4.25;;;0.30;99.90;;;;;;4976358;28;20525;-65
2021/11/22 02:21:11;;;;;;;15.80;4.43;;;0.30;99.90;;;;;;4968906;28;20501;-65
2021/11/22 02:23:37;;;;;;;12.75;4.32;;;0.30;99.90;;;;;;4963268;28;20155;-65
2021/11/22 02:26:02;;;;;;;14.75;4.57;;;0.30;99.90;;;;;;4980357;28;20062;-65
2021/11/22 02:28:28;;;;;;;14.18;4.93;;;0.40;99.90;;;;;;4973211;28;20366;-65
2021/11/22 02:30:54;;;;;;;10.02;4.47;;;0.20;99.90;;;;;;4970493;28;20027;-65
2021/11/22 02:33:27;;;;;;;18.55;4.93;;;0.20;99.90;;;;;;4976673;28;20042;-65
2021/11/22 02:35:58;;;;;;;14.18;4.95;;;0.10;99.90;;;;;;4974200;28;20034;-65
2021/11/22 02:38:30;;;;;;;11.80;3.92;;;0.10;99.90;;;;;;4974883;28;20027;-65
2021/11/22 02:40:57;;;;;;;20.00;5.22;;;0.10;99.90;;;;;;4969447;28;20492;-65
2021/11/22 02:43:23;;;;;;;16.88;4.60;;;0.10;99.90;;;;;;4978642;28;20034;-65
2021/11/22 02:45:48;;;;;;;15.52;5.13;;;0.20;99.90;;;;;;4968335;28;20623;-65
2021/11/22 02:48:14;;;;;;;10.88;4.85;;;0.20;99.90;;;;;;4971093;28;20551;-65
2021/11/22 02:50:40;;;;;;;18.15;5.13;;;0.10;99.90;;;;;;4962221;28;20041;-67
2021/11/22 02:53:05;;;;;;;19.55;5.63;;;0.20;99.90;;;;;;4963553;28;20030;-65
2021/11/22 02:55:31;;;;;;;17.88;5.20;;;0.10;99.90;;;;;;4972649;28;20499;-65
2021/11/22 02:57:57;;;;;;;11.38;5.20;;;0.10;99.90;;;;;;4977612;28;20034;-65
2021/11/22 03:00:31;;;;;;;18.58;4.82;;;0.10;99.90;;;;;;4975672;28;20034;-65
2021/11/22 03:02:56;;;;;;;15.18;5.00;;;0.10;99.90;;;;;;4969949;28;20074;-66
2021/11/22 03:05:22;;;;;;;14.27;5.07;;;0.10;99.90;;;;;;4965537;28;20082;-65
2021/11/22 03:07:50;;;;;;;17.38;5.40;;;0.10;99.90;;;;;;4974679;28;20026;-65
2021/11/22 03:10:17;;;;;;;17.40;5.90;;;0.10;99.90;;;;;;4965856;28;20066;-65
2021/11/22 03:12:44;;;;;;;15.35;5.70;;;0.00;99.90;;;;;;4972976;28;20031;-65
2021/11/22 03:15:12;;;;;;;14.30;5.60;;;0.00;99.90;;;;;;4960429;28;20114;-65
2021/11/22 03:17:39;;;;;;;18.52;5.88;;;0.00;99.90;;;;;;4972520;28;20049;-65
2021/11/22 03:20:06;;;;;;;20.10;6.07;;;0.00;99.90;;;;;;4976773;28;20039;-65
2021/11/22 03:22:31;;;;;;;16.88;6.13;;;0.00;99.90;;;;;;4981232;28;20085;-65
2021/11/22 03:24:57;;;;;;;18.48;5.90;;;0.00;99.90;;;;;;4969877;28;20047;-65
2021/11/22 03:27:23;;;;;;;21.08;6.15;;;0.00;99.90;;;;;;4975651;28;20403;-65
2021/11/22 03:29:48;;;;;;;20.75;6.32;;;0.00;99.90;;;;;;4969461;28;20023;-65
2021/11/22 03:32:14;;;;;;;22.63;6.82;;;0.00;99.90;;;;;;4979408;28;20462;-65
2021/11/22 03:34:39;;;;;;;23.60;7.30;;;0.00;99.90;;;;;;4970569;28;20038;-65
2021/11/22 03:37:05;;;;;;;26.38;7.45;;;-3276.70;99.90;;;;;;4966754;28;20034;-65
2021/11/22 03:39:32;;;;;;;27.23;6.57;;;-3276.70;99.90;;;;;;4981295;28;20035;-65
2021/11/22 03:42:02;;;;;;;25.00;7.68;;;0.00;99.90;;;;;;4981308;28;20038;-65
2021/11/22 03:44:28;;;;;;;28.60;8.07;;;0.00;99.90;;;;;;4973500;28;20038;-65
2021/11/22 03:46:55;;;;;;;27.42;7.90;;;0.00;99.90;;;;;;4975815;28;20529;-66
2021/11/22 03:49:21;;;;;;;44.47;9.38;;;0.00;99.90;;;;;;4987329;23;20051;-65
2021/11/22 03:51:48;;;;;;;29.40;8.07;;;0.00;99.90;;;;;;4955665;28;20113;-63
2021/11/22 03:54:14;;;;;;;28.80;8.43;;;-3276.70;99.90;;;;;;4950362;28;20458;-65
2021/11/22 03:56:40;;;;;;;30.45;8.73;;;-3276.70;99.90;;;;;;4959432;28;20022;-65
2021/11/22 03:59:07;;;;;;;30.60;8.55;;;-3276.70;99.90;;;;;;4955827;28;20042;-65
2021/11/22 04:01:33;;;;;;;28.58;8.13;;;-3276.70;99.90;;;;;;4953253;28;20037;-65
2021/11/22 04:03:58;;;;;;;27.33;7.72;;;-3276.70;99.90;;;;;;4958435;28;20043;-65
2021/11/22 04:06:24;;;;;;;28.67;8.50;;;-3276.70;99.90;;;;;;4953921;28;20038;-65
2021/11/22 04:08:50;;;;;;;37.47;8.57;;;-3276.70;99.90;;;;;;4956180;28;20030;-65
2021/11/22 04:11:16;;;;;;;30.65;9.48;;;-3276.70;99.90;;;;;;4949055;28;20261;-65
2021/11/22 04:13:42;;;;;;;42.47;9.93;;;-3276.70;99.90;;;;;;4954918;28;20038;-65
2021/11/22 04:16:08;;;;;;;31.08;9.02;;;-3276.70;99.90;;;;;;4955078;28;20166;-65
2021/11/22 04:18:34;;;;;;;27.20;8.70;;;-3276.70;99.90;;;;;;4947391;28;20059;-65
2021/11/22 04:21:00;;;;;;;29.95;7.95;;;-3276.60;99.90;;;;;;4961088;28;20587;-65
2021/11/22 04:23:27;;;;;;;37.72;9.93;;;-3276.60;99.90;;;;;;4951192;28;20042;-66
2021/11/22 04:25:52;;;;;;;39.47;10.13;;;-3276.70;99.90;;;;;;4957303;28;20039;-65
2021/11/22 04:28:18;;;;;;;38.42;9.82;;;-3276.60;99.90;;;;;;4959869;28;20031;-65
2021/11/22 04:30:44;;;;;;;30.58;8.63;;;-3276.60;99.90;;;;;;4950203;28;20474;-65
2021/11/22 04:33:10;;;;;;;31.27;9.43;;;-3276.60;99.90;;;;;;4954642;28;20033;-64
2021/11/22 04:35:36;;;;;;;36.05;9.23;;;-3276.60;99.90;;;;;;4953118;28;20174;-65
2021/11/22 04:38:02;;;;;;;32.30;9.00;;;-3276.60;99.90;;;;;;4959060;28;20133;-64
2021/11/22 04:40:28;;;;;;;36.70;10.38;;;-3276.50;99.90;;;;;;4952968;28;20027;-64
2021/11/22 04:42:54;;;;;;;38.42;10.20;;;-3276.60;99.90;;;;;;4951101;28;20087;-65
2021/11/22 04:45:23;;;;;;;33.17;10.23;;;-3276.50;99.90;;;;;;4956751;28;20133;-64
2021/11/22 04:47:50;;;;;;;32.70;9.35;;;-3276.50;99.90;;;;;;4952841;28;20398;-65
2021/11/22 04:50:18;;;;;;;36.65;10.15;;;-3276.50;99.90;;;;;;4957421;28;20110;-65
2021/11/22 04:52:45;;;;;;;41.22;11.18;;;-3276.50;99.90;;;;;;4957042;28;20125;-65
2021/11/22 04:55:13;;;;;;;39.08;10.85;;;-3276.50;99.90;;;;;;4951596;28;20026;-65
2021/11/22 04:57:39;;;;;;;35.13;10.88;;;-3276.40;99.90;;;;;;4959637;28;20150;-65
2021/11/22 05:00:06;;;;;;;36.70;10.75;;;-3276.30;99.90;;;;;;4949957;28;20035;-65
2021/11/22 05:02:32;;;;;;;31.13;10.18;;;-3276.30;99.90;;;;;;4944185;28;20031;-65
2021/11/22 05:04:57;;;;;;;37.13;10.48;;;-3276.30;99.90;;;;;;4956932;28;20473;-65
2021/11/22 05:07:23;;;;;;;41.97;12.18;;;-3276.30;99.90;;;;;;4952684;28;20045;-65
2021/11/22 05:09:48;;;;;;;42.83;11.13;;;-3276.30;99.90;;;;;;4945722;28;20039;-65
2021/11/22 05:12:15;;;;;;;32.38;9.98;;;-3276.20;99.90;;;;;;4953707;28;20033;-65
2021/11/22 05:14:41;;;;;;;35.47;11.50;;;-3276.20;99.90;;;;;;4947782;28;20710;-65
2021/11/22 05:17:07;;;;;;;35.90;11.00;;;-3276.20;99.90;;;;;;4953465;28;20049;-65
2021/11/22 05:19:32;;;;;;;42.45;11.80;;;-3276.30;99.90;;;;;;4950390;28;20023;-65
2021/11/22 05:22:00;;;;;;;34.08;11.52;;;-3276.30;99.90;;;;;;4956354;28;20035;-65
2021/11/22 05:24:27;;;;;;;37.72;11.85;;;-3276.30;99.90;;;;;;4945139;28;20045;-65
2021/11/22 05:26:52;;;;;;;35.55;10.82;;;-3276.20;99.90;;;;;;4946725;28;20023;-65
2021/11/22 05:29:18;;;;;;;30.33;11.75;;;-3276.20;99.90;;;;;;4950601;28;20181;-65
2021/11/22 05:31:44;;;;;;;40.88;12.20;;;-3276.30;99.90;;;;;;4946350;28;20121;-65
2021/11/22 05:34:09;;;;;;;35.25;12.55;;;-3276.30;99.90;;;;;;4958305;28;20031;-65
2021/11/22 05:36:35;;;;;;;46.60;13.27;;;-3276.30;99.90;;;;;;4951165;28;20030;-65
2021/11/22 05:39:03;;;;;;;38.13;12.40;;;-3276.20;99.90;;;;;;4955063;28;20387;-65
2021/11/22 05:41:28;;;;;;;39.80;12.90;;;-3276.20;99.90;;;;;;4952860;28;20019;-65
2021/11/22 05:43:54;;;;;;;41.28;13.25;;;-3276.20;99.90;;;;;;4947845;28;20034;-65
2021/11/22 05:46:19;;;;;;;45.58;14.30;;;-3276.20;99.90;;;;;;4944812;28;20252;-66
2021/11/22 05:48:45;;;;;;;42.97;13.98;;;-3276.20;99.90;;;;;;4955440;28;20177;-65
2021/11/22 05:51:11;;;;;;;36.22;12.85;;;-3276.10;99.90;;;;;;4946883;28;20146;-65
2021/11/22 05:53:38;;;;;;;48.22;14.27;;;-3276.10;99.90;;;;;;4944871;28;20027;-65
2021/11/22 05:56:05;;;;;;;44.65;12.43;;;-3276.10;99.90;;;;;;4943837;28;20050;-65
2021/11/22 05:58:32;;;;;;;42.25;13.43;;;-3276.10;99.90;;;;;;4949467;28;20110;-65
2021/11/22 06:00:59;;;;;;;35.58;11.80;;;-3276.00;99.90;;;;;;4944846;28;20485;-65
2021/11/22 06:03:26;;;;;;;39.45;11.63;;;-3276.00;99.90;;;;;;4940227;28;20141;-65
2021/11/22 06:05:52;;;;;;;40.08;11.98;;;-3276.00;99.90;;;;;;4947276;28;20068;-64
2021/11/22 06:08:17;;;;;;;39.47;10.85;;;-3276.00;99.90;;;;;;4948760;28;20386;-66
2021/11/22 06:10:43;;;;;;;45.03;13.05;;;-3276.00;99.90;;;;;;4953558;28;20422;-66
2021/11/22 06:13:11;;;;;;;46.95;13.25;;;-3276.00;99.90;;;;;;4951663;28;20082;-65
2021/11/22 06:15:37;;;;;;;38.53;13.65;;;-3276.00;99.90;;;;;;4946398;28;20572;-64
2021/11/22 06:18:03;;;;;;;43.78;15.38;;;-3275.90;99.90;;;;;;4950095;28;20126;-64
2021/11/22 06:20:29;;;;;;;42.70;14.35;;;-3275.90;99.90;;;;;;4950877;28;20446;-64
2021/11/22 06:22:54;;;;;;;46.35;16.45;;;-3276.00;99.90;;;;;;4949641;28;20058;-66
2021/11/22 06:25:20;;;;;;;43.90;15.38;;;-3276.10;99.90;;;;;;4958535;28;20023;-66
2021/11/22 06:27:45;;;;;;;59.63;16.70;;;-3276.20;99.90;;;;;;4949743;28;20114;-65
2021/11/22 06:30:11;;;;;;;53.85;17.50;;;-3276.20;99.90;;;;;;4949024;28;20094;-64
2021/11/22 06:32:37;;;;;;;54.20;16.92;;;-3276.20;99.90;;;;;;4958067;28;20039;-66
2021/11/22 06:35:04;;;;;;;52.03;16.17;;;-3276.20;99.90;;;;;;4953613;28;20062;-66
2021/11/22 06:37:31;;;;;;;54.60;17.02;;;-3276.10;99.90;;;;;;4953318;28;20520;-66
2021/11/22 06:39:57;;;;;;;49.33;15.98;;;-3276.10;99.90;;;;;;4952601;28;20023;-65
2021/11/22 06:42:24;;;;;;;51.58;14.65;;;-3276.00;99.90;;;;;;4949100;28;20042;-65
2021/11/22 06:44:50;;;;;;;50.17;15.88;;;-3276.00;99.90;;;;;;4985871;28;20385;-66
2021/11/22 06:47:16;;;;;;;55.72;16.73;;;-3275.90;99.90;;;;;;4953108;28;20066;-66
2021/11/22 06:49:42;;;;;;;51.03;15.38;;;-3275.90;99.90;;;;;;4946588;28;20500;-66
2021/11/22 06:52:08;;;;;;;43.42;14.75;;;-3275.90;99.90;;;;;;4953904;28;20098;-65
2021/11/22 06:54:33;;;;;;;44.50;14.65;;;-3275.90;99.90;;;;;;4954613;28;20035;-66
2021/11/22 06:57:00;;;;;;;48.90;15.27;;;-3275.90;99.90;;;;;;4957069;28;20043;-65
2021/11/22 06:59:28;;;;;;;51.30;16.13;;;-3276.00;99.90;;;;;;4962473;28;20179;-65
2021/11/22 07:01:54;;;;;;;47.63;16.58;;;-3275.90;99.90;;;;;;4954707;28;20456;-65
2021/11/22 07:04:19;;;;;;;48.22;16.30;;;-3275.90;99.90;;;;;;4963452;28;20034;-65
2021/11/22 07:06:45;;;;;;;53.35;16.52;;;-3275.90;99.90;;;;;;4952171;28;20034;-65
2021/11/22 07:09:11;;;;;;;55.95;16.65;;;-3275.90;99.90;;;;;;4943440;28;20023;-64
2021/11/22 07:11:36;;;;;;;54.60;16.98;;;-3275.90;99.90;;;;;;4949900;28;20236;-66
2021/11/22 07:14:04;;;;;;;61.20;15.90;;;-3275.90;99.90;;;;;;4960565;28;20111;-65
2021/11/22 07:16:30;;;;;;;59.50;16.13;;;-3275.80;99.90;;;;;;4958978;28;20034;-65
2021/11/22 07:18:56;;;;;;;45.78;16.25;;;-3275.80;99.90;;;;;;4954319;28;20035;-64
2021/11/22 07:21:21;;;;;;;54.58;15.52;;;-3275.80;99.90;;;;;;4961689;28;20027;-64
2021/11/22 07:23:47;;;;;;;44.33;14.40;;;-3275.80;99.90;;;;;;4963877;28;20039;-65
2021/11/22 07:26:13;;;;;;;54.45;15.40;;;-3275.80;99.90;;;;;;4954651;28;20254;-64
2021/11/22 07:28:38;;;;;;;50.00;15.25;;;-3275.80;99.90;;;;;;4957981;28;20035;-65
2021/11/22 07:31:04;;;;;;;47.28;14.95;;;-3275.90;99.90;;;;;;4956844;28;20545;-64
2021/11/22 07:33:29;;;;;;;60.08;16.63;;;-3275.90;99.90;;;;;;4982110;28;20057;-64
2021/11/22 07:35:55;;;;;;;49.28;15.40;;;-3275.90;99.90;;;;;;4948640;28;22011;-65
2021/11/22 07:38:21;;;;;;;50.78;16.02;;;-3275.90;99.90;;;;;;4950077;28;20350;-65
2021/11/22 07:40:47;;;;;;;53.45;16.20;;;-3275.90;99.90;;;;;;4956133;28;20083;-65
2021/11/22 07:43:15;;;;;;;51.53;15.48;;;-3275.90;99.90;;;;;;4957021;28;20571;-65
2021/11/22 07:45:41;;;;;;;39.03;13.15;;;-3275.90;99.90;;;;;;4958178;28;20031;-65
2021/11/22 07:48:07;;;;;;;44.90;14.38;;;-3276.00;99.90;;;;;;4959073;28;20042;-64
2021/11/22 07:50:33;;;;;;;72.15;16.15;;;-3276.00;99.90;;;;;;4951891;28;20425;-66
2021/11/22 07:52:59;;;;;;;160.45;17.92;;;-3276.00;99.90;;;;;;4954915;28;20114;-65
2021/11/22 07:55:24;;;;;;;129.48;17.27;;;-3276.00;99.90;;;;;;4946950;28;20051;-65
2021/11/22 07:57:52;;;;;;;51.33;13.85;;;-3276.00;99.90;;;;;;4955628;28;20059;-66
2021/11/22 08:00:19;;;;;;;58.58;16.00;;;-3276.00;99.90;;;;;;4951677;28;23627;-65
2021/11/22 08:02:45;;;;;;;49.45;15.85;;;-3276.10;99.90;;;;;;4947424;28;20394;-66
2021/11/22 08:05:11;;;;;;;40.10;14.38;;;-3276.10;99.90;;;;;;4948518;28;20035;-66
2021/11/22 08:07:40;;;;;;;44.33;15.73;;;-3276.20;99.90;;;;;;4963426;28;20133;-64
2021/11/22 08:13:00;;;;;;;57.33;15.68;;;-3276.50;99.90;;;;;;4951093;28;20566;-65
2021/11/22 08:15:30;;;;;;;63.33;16.98;;;-3276.60;99.90;;;;;;4954011;28;20034;-65
2021/11/22 08:17:58;;;;;;;85.03;19.08;;;-3276.70;99.90;;;;;;4948435;28;20099;-66
2021/11/22 08:20:23;;;;;;;107.45;17.88;;;0.00;99.90;;;;;;4963720;28;20142;-66
2021/11/22 08:22:51;;;;;;;77.40;17.27;;;0.00;99.90;;;;;;4960342;28;20109;-66
2021/11/22 08:25:18;;;;;;;69.35;16.77;;;0.10;99.90;;;;;;4960792;28;20092;-64
2021/11/22 08:27:45;;;;;;;66.30;14.70;;;0.10;99.90;;;;;;4960253;28;20022;-65
2021/11/22 08:30:14;;;;;;;87.07;15.90;;;0.10;99.90;;;;;;4961920;28;20401;-65
2021/11/22 08:32:41;;;;;;;65.45;16.42;;;0.20;99.90;;;;;;4958478;28;20039;-65
2021/11/22 08:35:08;;;;;;;53.47;14.95;;;0.20;99.90;;;;;;4954298;28;20023;-65
2021/11/22 08:37:35;;;;;;;47.60;14.88;;;0.20;99.90;;;;;;4953116;28;20119;-68
2021/11/22 08:40:01;;;;;;;46.67;14.35;;;0.20;99.90;;;;;;4957756;28;20026;-66
2021/11/22 08:42:27;;;;;;;52.08;15.77;;;0.20;99.90;;;;;;4963024;28;20027;-65
2021/11/22 08:44:53;;;;;;;47.95;15.07;;;0.20;99.90;;;;;;4955483;28;20023;-65
2021/11/22 08:47:19;;;;;;;49.25;15.88;;;0.40;99.90;;;;;;4956089;28;20121;-65
2021/11/22 08:49:44;;;;;;;49.22;16.60;;;0.40;99.90;;;;;;4955755;28;20038;-66
2021/11/22 08:52:11;;;;;;;46.15;16.33;;;0.50;99.90;;;;;;4956289;28;20427;-65
2021/11/22 08:54:37;;;;;;;48.53;16.67;;;0.60;99.90;;;;;;4959299;28;20026;-65
2021/11/22 08:57:06;;;;;;;65.63;18.58;;;0.70;99.90;;;;;;4964279;28;20039;-65
2021/11/22 08:59:32;;;;;;;57.28;18.00;;;0.80;99.90;;;;;;4953807;28;20029;-66
2021/11/22 09:01:57;;;;;;;51.53;17.25;;;0.80;99.90;;;;;;4961651;28;20042;-66
2021/11/22 09:04:24;;;;;;;64.78;19.05;;;0.90;99.90;;;;;;4962752;28;20118;-66
2021/11/22 09:06:50;;;;;;;54.88;18.55;;;0.90;99.90;;;;;;4962137;28;20714;-66
2021/11/22 09:09:15;;;;;;;59.20;18.10;;;1.00;99.90;;;;;;4953514;28;20314;-66
2021/11/22 09:11:42;;;;;;;57.17;18.90;;;1.20;99.90;;;;;;4961967;28;20042;-66
2021/11/22 09:14:08;;;;;;;63.92;20.35;;;1.30;99.90;;;;;;4960308;28;20050;-66
2021/11/22 09:16:33;;;;;;;58.75;18.98;;;1.30;99.90;;;;;;4957693;28;20514;-66
2021/11/22 09:19:01;;;;;;;64.65;20.73;;;1.40;99.90;;;;;;4950837;28;20027;-66
2021/11/22 09:21:27;;;;;;;75.65;22.83;;;1.60;99.90;;;;;;4958498;28;20110;-66
2021/11/22 09:23:53;;;;;;;68.63;21.25;;;1.70;99.90;;;;;;4956924;28;20034;-67
2021/11/22 09:26:20;;;;;;;85.82;23.45;;;1.80;99.90;;;;;;4961762;28;20035;-66
2021/11/22 09:28:46;;;;;;;69.35;20.75;;;1.90;99.90;;;;;;4989713;28;20883;-67
2021/11/22 09:31:13;;;;;;;67.68;21.30;;;2.00;99.90;;;;;;4955856;28;20450;-68
2021/11/22 09:33:38;;;;;;;61.20;20.42;;;2.10;99.90;;;;;;4957270;28;20049;-67
2021/11/22 09:36:04;;;;;;;59.97;20.92;;;2.20;99.90;;;;;;4976640;28;20387;-67
2021/11/22 09:38:30;;;;;;;63.83;20.83;;;2.30;99.90;;;;;;4962375;28;20454;-67
2021/11/22 09:40:57;;;;;;;66.93;21.23;;;2.40;99.90;;;;;;4958787;28;20355;-68
2021/11/22 09:43:24;;;;;;;82.05;22.95;;;2.50;99.90;;;;;;4961937;28;20038;-67
2021/11/22 09:45:50;;;;;;;58.80;21.27;;;2.70;99.90;;;;;;4959918;28;20041;-67
2021/11/22 09:48:16;;;;;;;63.95;19.52;;;2.90;99.90;;;;;;4957235;28;20510;-67
2021/11/22 09:50:42;;;;;;;52.22;19.23;;;2.80;99.90;;;;;;4950376;28;20039;-66
2021/11/22 09:53:07;;;;;;;52.08;19.10;;;2.90;99.90;;;;;;4954903;28;20121;-67
2021/11/22 09:55:34;;;;;;;56.92;18.48;;;3.10;99.90;;;;;;4952382;28;20046;-68
2021/11/22 09:58:03;;;;;;;47.38;17.48;;;3.20;99.90;;;;;;4959717;28;20557;-66
2021/11/22 10:00:38;;;;;;;47.55;16.63;;;3.30;99.90;;;;;;4952630;28;20031;-66
2021/11/22 10:03:09;;;;;;;46.85;15.90;;;3.30;99.90;;;;;;4954487;28;20027;-67
2021/11/22 10:05:36;;;;;;;44.33;14.52;;;3.40;99.70;;;;;;4955297;28;20030;-67
2021/11/22 10:08:19;;;;;;;35.28;13.88;;;3.50;99.60;;;;;;4954966;28;20454;-67
2021/11/22 10:10:57;;;;;;;38.75;14.23;;;3.60;99.40;;;;;;4970480;28;20062;-67
2021/11/22 10:13:27;;;;;;;43.08;13.38;;;3.80;99.40;;;;;;4960679;28;20023;-67
2021/11/22 10:16:16;;;;;;;38.40;14.23;;;3.90;99.10;;;;;;4954597;28;20105;-66
2021/11/22 10:18:47;;;;;;;41.63;15.40;;;3.90;98.90;;;;;;4953439;28;20365;-66
2021/11/22 10:21:19;;;;;;;31.02;13.73;;;4.00;98.60;;;;;;4949204;28;20477;-66
2021/11/22 10:23:48;;;;;;;31.88;14.48;;;3.90;98.20;;;;;;4958287;28;20478;-67
2021/11/22 10:26:16;;;;;;;39.28;14.90;;;4.00;97.80;;;;;;4953921;28;20208;-66
2021/11/22 10:28:47;;;;;;;36.35;14.55;;;4.10;97.50;;;;;;4962454;28;20031;-67
2021/11/22 10:31:18;;;;;;;;;;;4.10;97.10;;;;;;4959178;28;20054;-67
2021/11/22 10:33:46;;;;;;;39.50;14.27;;;4.30;96.50;;;;;;4958457;28;19910;-67
2021/11/22 10:36:14;;;;;;;32.38;13.25;;;4.20;95.80;;;;;;4953710;28;20105;-67
2021/11/22 10:38:46;;;;;;;36.17;13.13;;;4.30;95.50;;;;;;4957588;28;20031;-67
2021/11/22 10:41:23;;;;;;;34.53;14.05;;;4.40;95.40;;;;;;4962858;28;20041;-66
2021/11/22 10:43:53;;;;;;;30.15;12.27;;;4.40;94.30;;;;;;4960157;28;20138;-67
2021/11/22 10:46:32;;;;;;;34.97;13.25;;;4.40;94.30;;;;;;4957076;28;20474;-67
2021/11/22 10:49:16;;;;;;;32.22;11.60;;;4.40;94.30;;;;;;4959319;28;20324;-67
2021/11/22 10:51:46;;;;;;;31.45;12.43;;;4.60;93.60;;;;;;4951034;28;20171;-67
2021/11/22 10:54:17;;;;;;;31.65;13.20;;;4.70;93.50;;;;;;4957445;28;20027;-67
2021/11/22 10:56:46;;;;;;;30.27;12.48;;;4.80;93.30;;;;;;4959860;28;20062;-67
2021/11/22 10:59:14;;;;;;;26.48;11.27;;;4.80;93.30;;;;;;4948983;28;20434;-66
2021/11/22 11:01:58;;;;;;;21.40;9.82;;;4.80;93.10;;;;;;4947212;28;20042;-67
2021/11/22 11:04:24;;;;;;;19.63;9.70;;;4.90;91.20;;;;;;4954910;28;20022;-67
2021/11/22 11:07:07;;;;;;;23.27;9.68;;;5.00;90.40;;;;;;4984403;28;20035;-67
2021/11/22 11:09:39;;;;;;;19.95;7.85;;;5.10;91.00;;;;;;4945104;28;20026;-67
2021/11/22 11:12:15;;;;;;;15.82;7.28;;;5.30;91.10;;;;;;4955216;28;20035;-67
2021/11/22 11:14:44;;;;;;;22.70;6.00;;;5.10;89.70;;;;;;4957849;28;20432;-67
2021/11/22 11:17:14;;;;;;;9.63;5.53;;;5.30;89.50;;;;;;4940169;28;20753;-67
2021/11/22 11:19:40;;;;;;;8.85;4.63;;;5.50;90.20;;;;;;4950356;28;20069;-67
2021/11/22 11:22:06;;;;;;;8.45;4.55;;;5.50;89.90;;;;;;4951419;28;20089;-67
2021/11/22 11:24:32;;;;;;;7.68;4.22;;;5.70;89.60;;;;;;4944198;28;20031;-67
2021/11/22 11:26:58;;;;;;;6.72;3.92;;;5.70;89.30;;;;;;4954893;28;20054;-66
2021/11/22 11:29:23;;;;;;;6.68;3.53;;;6.00;89.30;;;;;;4946950;28;20573;-66
2021/11/22 11:31:49;;;;;;;8.13;3.38;;;6.10;88.30;;;;;;4970202;28;20404;-67
2021/11/22 11:34:16;;;;;;;8.00;3.10;;;6.20;88.10;;;;;;4952433;28;20027;-67
2021/11/22 11:37:18;;;;;;;9.68;2.80;;;6.30;86.70;;;;;;4958200;28;20118;-67
2021/11/22 11:39:59;;;;;;;10.95;3.25;;;6.40;85.80;;;;;;4957214;28;20034;-67
2021/11/22 11:42:59;;;;;;;7.87;2.90;;;6.30;86.20;;;;;;4960982;28;20163;-67
2021/11/22 11:45:44;;;;;;;7.75;2.95;;;6.50;87.10;;;;;;4982900;28;20071;-67
2021/11/22 11:48:39;;;;;;;8.85;2.83;;;6.60;86.50;;;;;;4956352;28;20553;-67
2021/11/22 11:51:11;;;;;;;4.28;2.65;;;6.80;86.20;;;;;;4960375;28;20038;-67
2021/11/22 11:53:38;;;;;;;8.18;2.20;;;6.90;85.60;;;;;;4966687;28;20026;-66
2021/11/22 11:56:11;;;;;;;3.75;2.03;;;7.00;84.30;;;;;;4951195;28;21158;-66
2021/11/22 11:58:37;;;;;;;5.07;2.05;;;7.00;82.20;;;;;;4953858;28;20937;-67
2021/11/22 12:01:13;;;;;;;4.97;2.08;;;7.00;83.10;;;;;;4958536;28;20035;-66
2021/11/22 12:04:06;;;;;;;5.70;1.92;;;7.10;83.20;;;;;;4957716;28;20469;-66
2021/11/22 12:06:52;;;;;;;7.38;1.60;;;7.30;81.50;;;;;;4947064;28;20043;-66
2021/11/22 12:09:39;;;;;;;2.83;1.60;;;7.40;81.10;;;;;;4947282;28;20034;-66
2021/11/22 12:12:07;;;;;;;3.80;1.77;;;7.50;81.20;;;;;;4973376;28;20097;-67
2021/11/22 12:14:57;;;;;;;5.22;1.65;;;7.30;79.50;;;;;;4960201;28;21882;-66
2021/11/22 12:17:34;;;;;;;2.05;1.20;;;7.30;80.00;;;;;;4959498;28;20026;-66
2021/11/22 12:20:21;;;;;;;3.42;1.48;;;7.30;79.50;;;;;;4954722;28;20077;-66
2021/11/22 12:22:54;;;;;;;3.17;1.52;;;7.50;78.60;;;;;;4957348;28;20138;-66
2021/11/22 12:28:05;;;;;;;3.72;1.33;;;7.30;79.60;;;;;;4963605;28;20093;-66
2021/11/22 12:30:31;;;;;;;2.30;1.00;;;7.10;79.80;;;;;;4912298;28;20034;-66
2021/11/22 12:33:25;;;;;;;3.60;1.20;;;7.10;80.10;;;;;;4956208;28;20050;-66
2021/11/22 12:36:25;;;;;;;7.13;1.30;;;7.10;78.60;;;;;;4948583;28;20092;-67
2021/11/22 12:38:52;;;;;;;3.97;1.33;;;7.10;78.00;;;;;;4957778;28;20626;-66